createdAt,value
2024-03-24T00:00:45.428Z,4.1951
2024-03-24T00:01:50.321Z,4.1913
2024-03-24T00:02:55.106Z,4.1884
2024-03-24T00:04:00.033Z,4.1884
2024-03-24T00:05:04.884Z,4.1903
2024-03-24T00:06:09.666Z,4.1961
2024-03-24T00:07:14.530Z,4.2024
2024-03-24T00:08:19.309Z,4.2088
2024-03-24T00:09:24.205Z,4.2098
2024-03-24T00:10:29.246Z,4.2114
2024-03-24T00:11:33.999Z,4.2129
2024-03-24T00:12:38.778Z,4.2184
2024-03-24T00:13:43.656Z,4.2273
2024-03-24T00:14:48.511Z,4.2403
2024-03-24T00:15:53.254Z,4.2553
2024-03-24T00:16:58.049Z,4.2700
2024-03-24T00:18:02.862Z,4.2833
2024-03-24T00:19:07.748Z,4.2970
2024-03-24T00:20:12.513Z,4.3069
2024-03-24T00:21:17.444Z,4.3123
2024-03-24T00:22:22.391Z,4.3164
2024-03-24T00:23:27.161Z,4.3231
2024-03-24T00:24:31.931Z,4.3308
2024-03-24T00:25:36.745Z,4.3400
2024-03-24T00:26:41.523Z,4.3486
2024-03-24T00:27:46.359Z,4.3559
2024-03-24T00:28:51.197Z,4.3645
2024-03-24T00:29:55.989Z,4.3725
2024-03-24T00:31:00.840Z,4.3820
2024-03-24T00:32:05.738Z,4.3916
2024-03-24T00:33:10.703Z,4.4018
2024-03-24T00:34:15.667Z,4.4110
2024-03-24T00:35:20.416Z,4.4218
2024-03-24T00:36:25.277Z,4.4330
2024-03-24T00:37:30.224Z,4.4425
2024-03-24T00:38:35.206Z,4.4515
2024-03-24T00:39:42.501Z,4.4575
2024-03-24T00:40:50.702Z,4.4626
2024-03-24T00:41:55.515Z,4.4664
2024-03-24T00:43:00.480Z,4.4687
2024-03-24T00:44:05.391Z,4.4683
2024-03-24T00:45:10.167Z,4.4680
2024-03-24T00:46:15.027Z,4.4658
2024-03-24T00:47:19.974Z,4.4668
2024-03-24T00:48:24.736Z,4.4687
2024-03-24T00:49:29.621Z,4.4715
2024-03-24T00:50:34.550Z,4.4722
2024-03-24T00:51:39.309Z,4.4731
2024-03-24T00:52:44.133Z,4.4747
2024-03-24T00:53:48.922Z,4.4738
2024-03-24T00:54:53.740Z,4.4706
2024-03-24T00:55:58.494Z,4.4648
2024-03-24T00:57:03.331Z,4.4575
2024-03-24T00:58:08.136Z,4.4441
2024-03-24T00:59:12.933Z,4.4298
2024-03-24T01:00:17.734Z,4.4177
2024-03-24T01:01:22.512Z,4.4069
2024-03-24T01:02:27.320Z,4.3967
2024-03-24T01:03:32.107Z,4.3903
2024-03-24T01:04:36.858Z,4.3875
2024-03-24T01:05:41.736Z,4.3852
2024-03-24T01:06:46.675Z,4.3843
2024-03-24T01:07:51.460Z,4.3814
2024-03-24T01:08:56.304Z,4.3747
2024-03-24T01:10:01.076Z,4.3696
2024-03-24T01:11:05.896Z,4.3642
2024-03-24T01:12:10.855Z,4.3601
2024-03-24T01:13:15.610Z,4.3559
2024-03-24T01:14:20.464Z,4.3537
2024-03-24T01:15:25.278Z,4.3531
2024-03-24T01:16:30.053Z,4.3508
2024-03-24T01:17:34.847Z,4.3518
2024-03-24T01:18:39.668Z,4.3527
2024-03-24T01:19:44.463Z,4.3537
2024-03-24T01:20:49.317Z,4.3515
2024-03-24T01:21:54.238Z,4.3473
2024-03-24T01:22:58.978Z,4.3416
2024-03-24T01:24:03.854Z,4.3349
2024-03-24T01:25:08.822Z,4.3279
2024-03-24T01:26:13.557Z,4.3231
2024-03-24T01:27:18.382Z,4.3228
2024-03-24T01:28:23.341Z,4.3235
2024-03-24T01:29:28.256Z,4.3276
2024-03-24T01:30:33.029Z,4.3324
2024-03-24T01:31:37.894Z,4.3375
2024-03-24T01:32:42.698Z,4.3448
2024-03-24T01:33:47.499Z,4.3489
2024-03-24T01:34:52.292Z,4.3518
2024-03-24T01:35:57.108Z,4.3534
2024-03-24T01:37:02.081Z,4.3537
2024-03-24T01:38:07.028Z,4.3505
2024-03-24T01:39:11.961Z,4.3432
2024-03-24T01:40:16.735Z,4.3368
2024-03-24T01:41:21.605Z,4.3324
2024-03-24T01:42:26.507Z,4.3320
2024-03-24T01:43:31.305Z,4.3346
2024-03-24T01:44:36.067Z,4.3400
2024-03-24T01:45:40.878Z,4.3473
2024-03-24T01:46:45.744Z,4.3496
2024-03-24T01:47:50.520Z,4.3492
2024-03-24T01:48:55.335Z,4.3426
2024-03-24T01:50:00.232Z,4.3340
2024-03-24T01:51:04.947Z,4.3196
2024-03-24T01:52:09.922Z,4.3031
2024-03-24T01:53:14.853Z,4.2795
2024-03-24T01:54:19.637Z,4.2553
2024-03-24T01:55:24.472Z,4.2330
2024-03-24T01:56:29.283Z,4.2136
2024-03-24T01:57:34.105Z,4.1977
2024-03-24T01:58:38.886Z,4.1852
2024-03-24T01:59:43.668Z,4.1760
2024-03-24T02:00:48.590Z,4.1668
2024-03-24T02:01:53.586Z,4.1563
2024-03-24T02:02:58.520Z,4.1429
2024-03-24T02:04:03.465Z,4.1251
2024-03-24T02:05:08.416Z,4.1069
2024-03-24T02:06:13.199Z,4.0888
2024-03-24T02:07:18.009Z,4.0722
2024-03-24T02:08:22.993Z,4.0566
2024-03-24T02:09:27.958Z,4.0346
2024-03-24T02:10:32.692Z,4.0117
2024-03-24T02:11:37.526Z,3.9849
2024-03-24T02:12:42.499Z,3.9623
2024-03-24T02:13:47.476Z,3.9455
2024-03-24T02:14:52.404Z,3.9334
2024-03-24T02:15:57.201Z,3.9244
2024-03-24T02:17:02.006Z,3.9155
2024-03-24T02:18:07.010Z,3.9085
2024-03-24T02:19:11.827Z,3.9025
2024-03-24T02:20:16.646Z,3.8929
2024-03-24T02:21:21.526Z,3.8856
2024-03-24T02:22:26.288Z,3.8764
2024-03-24T02:23:31.137Z,3.8639
2024-03-24T02:24:36.087Z,3.8471
2024-03-24T02:25:40.874Z,3.8216
2024-03-24T02:26:45.710Z,3.7888
2024-03-24T02:27:50.677Z,3.7477
2024-03-24T02:28:55.548Z,3.6971
2024-03-24T02:30:00.313Z,3.6347
2024-03-24T02:31:05.204Z,3.5726
2024-03-24T02:32:10.114Z,3.5152
2024-03-24T02:33:14.920Z,3.4598
2024-03-24T02:34:19.788Z,3.4057
2024-03-24T02:35:24.674Z,3.3557
2024-03-24T02:36:29.447Z,3.3178
2024-03-24T02:37:34.376Z,3.2961
2024-03-24T02:38:39.124Z,3.2879
2024-03-24T02:39:43.939Z,3.2933
2024-03-24T02:40:49.216Z,3.3047
2024-03-24T02:41:54.053Z,3.3226
2024-03-24T02:42:58.861Z,3.3420
2024-03-24T02:44:03.795Z,3.3646
2024-03-24T02:45:08.755Z,3.3917
2024-03-24T02:46:13.780Z,3.4181
2024-03-24T02:47:18.534Z,3.4455
2024-03-24T02:48:23.296Z,3.4777
2024-03-24T02:49:28.250Z,3.5060
2024-03-24T02:50:33.039Z,3.5315
2024-03-24T02:51:37.855Z,3.5573
2024-03-24T02:52:42.823Z,3.5840
2024-03-24T02:53:47.787Z,3.6108
2024-03-24T02:54:52.719Z,3.6343
2024-03-24T02:55:57.507Z,3.6569
2024-03-24T02:57:02.392Z,3.6786
2024-03-24T02:58:07.360Z,3.6993
2024-03-24T02:59:12.093Z,3.7216
2024-03-24T03:00:16.887Z,3.7423
2024-03-24T03:01:21.857Z,3.7611
2024-03-24T03:02:26.604Z,3.7792
2024-03-24T03:03:31.450Z,3.7967
2024-03-24T03:04:36.215Z,3.8123
2024-03-24T03:05:41.053Z,3.8254
2024-03-24T03:06:45.846Z,3.8334
2024-03-24T03:07:50.659Z,3.8394
2024-03-24T03:08:55.624Z,3.8436
2024-03-24T03:10:00.576Z,3.8477
2024-03-24T03:11:05.502Z,3.8521
2024-03-24T03:12:10.269Z,3.8579
2024-03-24T03:13:15.177Z,3.8643
2024-03-24T03:14:20.075Z,3.8709
2024-03-24T03:15:24.846Z,3.8783
2024-03-24T03:16:29.700Z,3.8830
2024-03-24T03:17:34.644Z,3.8859
2024-03-24T03:18:39.447Z,3.8853
2024-03-24T03:19:44.255Z,3.8811
2024-03-24T03:20:49.200Z,3.8767
2024-03-24T03:21:54.003Z,3.8703
2024-03-24T03:22:58.822Z,3.8595
2024-03-24T03:24:03.607Z,3.8404
2024-03-24T03:25:08.463Z,3.8155
2024-03-24T03:26:13.384Z,3.7901
2024-03-24T03:27:18.323Z,3.7694
2024-03-24T03:28:23.073Z,3.7531
2024-03-24T03:29:27.946Z,3.7388
2024-03-24T03:30:32.869Z,3.7174
2024-03-24T03:31:37.654Z,3.6971
2024-03-24T03:32:42.509Z,3.6805
2024-03-24T03:33:47.445Z,3.6719
2024-03-24T03:34:52.193Z,3.6560
2024-03-24T03:35:57.084Z,3.6197
2024-03-24T03:37:02.003Z,3.5694
2024-03-24T03:38:06.771Z,3.5245
2024-03-24T03:39:11.614Z,3.4917
2024-03-24T03:40:16.557Z,3.4732
2024-03-24T03:41:21.304Z,3.4662
2024-03-24T03:42:26.192Z,3.4668
2024-03-24T03:43:31.114Z,3.4563
2024-03-24T03:44:35.881Z,3.4213
2024-03-24T03:45:40.876Z,3.3646
2024-03-24T03:46:45.689Z,3.3003
2024-03-24T03:47:50.457Z,3.2255
2024-03-24T03:48:55.627Z,3.1484
2024-03-24T03:50:00.591Z,3.0736
2024-03-24T03:51:05.541Z,3.0057
2024-03-24T03:52:10.545Z,2.9436
2024-03-24T03:53:15.465Z,2.8917
2024-03-24T03:54:20.393Z,2.8554
2024-03-24T03:55:25.187Z,2.8334
2024-03-24T03:56:30.075Z,2.8268
2024-03-24T03:57:34.887Z,2.8385
2024-03-24T03:58:39.679Z,2.8650
2024-03-24T03:59:44.555Z,2.8990
2024-03-24T04:00:49.503Z,2.9328
2024-03-24T04:01:54.306Z,2.9650
2024-03-24T04:02:59.137Z,2.9978
2024-03-24T04:04:04.007Z,3.0277
2024-03-24T04:05:08.813Z,3.0522
2024-03-24T04:06:13.685Z,3.0767
2024-03-24T04:07:18.609Z,3.1054
2024-03-24T04:08:23.451Z,3.1350
2024-03-24T04:09:28.254Z,3.1665
2024-03-24T04:10:33.148Z,3.1984
2024-03-24T04:11:37.977Z,3.2280
2024-03-24T04:12:42.708Z,3.2570
2024-03-24T04:13:47.547Z,3.2863
2024-03-24T04:14:52.454Z,3.3133
2024-03-24T04:15:57.372Z,3.3423
2024-03-24T04:17:02.294Z,3.3684
2024-03-24T04:18:07.079Z,3.3949
2024-03-24T04:19:11.941Z,3.4200
2024-03-24T04:20:16.854Z,3.4439
2024-03-24T04:21:21.677Z,3.4719
2024-03-24T04:22:26.523Z,3.4996
2024-03-24T04:23:31.403Z,3.5229
2024-03-24T04:24:36.199Z,3.5439
2024-03-24T04:25:41.000Z,3.5633
2024-03-24T04:26:45.969Z,3.5802
2024-03-24T04:27:50.764Z,3.6015
2024-03-24T04:28:55.628Z,3.6175
2024-03-24T04:30:00.510Z,3.6296
2024-03-24T04:31:05.376Z,3.6420
2024-03-24T04:32:10.151Z,3.6550
2024-03-24T04:33:15.084Z,3.6668
2024-03-24T04:34:19.867Z,3.6741
2024-03-24T04:35:24.780Z,3.6773
2024-03-24T04:36:29.627Z,3.6761
2024-03-24T04:37:34.405Z,3.6719
2024-03-24T04:38:39.296Z,3.6655
2024-03-24T04:39:44.218Z,3.6550
2024-03-24T04:40:49.226Z,3.6468
2024-03-24T04:41:54.187Z,3.6404
2024-03-24T04:42:58.966Z,3.6350
2024-03-24T04:44:03.778Z,3.6251
2024-03-24T04:45:08.568Z,3.6171
2024-03-24T04:46:13.396Z,3.6063
2024-03-24T04:47:18.344Z,3.5990
2024-03-24T04:48:23.314Z,3.5929
2024-03-24T04:49:28.269Z,3.5850
2024-03-24T04:50:33.051Z,3.5783
2024-03-24T04:51:37.864Z,3.5684
2024-03-24T04:52:45.459Z,3.5627
2024-03-24T04:53:50.645Z,3.5620
2024-03-24T04:54:55.696Z,3.5671
2024-03-24T04:56:00.587Z,3.5786
2024-03-24T04:57:05.537Z,3.5926
2024-03-24T04:58:10.317Z,3.6082
2024-03-24T04:59:15.141Z,3.6219
2024-03-24T05:00:20.131Z,3.6359
2024-03-24T05:01:25.066Z,3.6499
2024-03-24T05:02:30.055Z,3.6649
2024-03-24T05:03:35.004Z,3.6808
2024-03-24T05:04:39.944Z,3.6964
2024-03-24T05:05:44.845Z,3.7127
2024-03-24T05:06:49.659Z,3.7280
2024-03-24T05:07:54.505Z,3.7439
2024-03-24T05:08:59.438Z,3.7582
2024-03-24T05:10:04.229Z,3.7722
2024-03-24T05:11:09.076Z,3.7830
2024-03-24T05:12:13.998Z,3.7958
2024-03-24T05:13:18.782Z,3.8053
2024-03-24T05:14:23.642Z,3.8072
2024-03-24T05:15:28.513Z,3.8015
2024-03-24T05:16:33.290Z,3.7805
2024-03-24T05:17:38.214Z,3.7407
2024-03-24T05:18:43.033Z,3.6757
2024-03-24T05:19:47.828Z,3.5878
2024-03-24T05:20:52.766Z,3.4805
2024-03-24T05:21:57.663Z,3.3665
2024-03-24T05:23:02.495Z,3.2541
2024-03-24T05:24:07.250Z,3.1484
2024-03-24T05:25:12.064Z,3.0506
2024-03-24T05:26:16.928Z,2.9551
2024-03-24T05:27:21.889Z,2.8637
2024-03-24T05:28:27.093Z,2.7755
2024-03-24T05:29:35.233Z,2.6943
2024-03-24T05:30:40.025Z,2.6188
2024-03-24T05:31:44.964Z,2.5555
2024-03-24T05:32:49.886Z,2.4988
2024-03-24T05:33:54.859Z,2.4510
2024-03-24T05:34:59.817Z,2.4134
2024-03-24T05:36:04.597Z,2.3806
2024-03-24T05:37:09.402Z,2.3513
2024-03-24T05:38:14.211Z,2.3227
2024-03-24T05:39:18.999Z,2.2934
2024-03-24T05:40:23.990Z,2.2618
2024-03-24T05:41:28.935Z,2.2290
2024-03-24T05:42:33.708Z,2.2039
2024-03-24T05:43:38.510Z,2.1927
2024-03-24T05:44:43.318Z,2.1832
2024-03-24T05:45:48.108Z,2.1679
2024-03-24T05:46:52.909Z,2.1520
2024-03-24T05:47:57.722Z,2.1310
2024-03-24T05:49:02.520Z,2.1115
2024-03-24T05:50:07.325Z,2.0944
2024-03-24T05:51:12.279Z,2.0787
2024-03-24T05:52:19.027Z,2.0670
2024-03-24T05:53:24.978Z,2.0549
2024-03-24T05:54:29.732Z,2.0412
2024-03-24T05:55:34.636Z,2.0316
2024-03-24T05:56:39.413Z,2.0291
2024-03-24T05:57:44.303Z,2.0256
2024-03-24T05:58:49.157Z,2.0205
2024-03-24T05:59:53.942Z,2.0144
2024-03-24T06:00:58.823Z,2.0106
2024-03-24T06:02:03.785Z,2.0026
2024-03-24T06:03:08.546Z,1.9972
2024-03-24T06:04:13.449Z,1.9950
2024-03-24T06:05:18.306Z,1.9969
2024-03-24T06:06:23.087Z,2.0039
2024-03-24T06:07:27.955Z,2.0125
2024-03-24T06:08:32.870Z,2.0272
2024-03-24T06:09:37.653Z,2.0456
2024-03-24T06:10:42.548Z,2.0724
2024-03-24T06:11:47.419Z,2.1039
2024-03-24T06:12:52.187Z,2.1326
2024-03-24T06:13:57.084Z,2.1587
2024-03-24T06:15:01.903Z,2.1756
2024-03-24T06:16:06.670Z,2.1838
2024-03-24T06:17:11.456Z,2.1873
2024-03-24T06:18:16.307Z,2.1873
2024-03-24T06:19:21.110Z,2.1857
2024-03-24T06:20:25.905Z,2.1803
2024-03-24T06:21:30.671Z,2.1759
2024-03-24T06:22:35.486Z,2.1698
2024-03-24T06:23:40.439Z,2.1676
2024-03-24T06:24:45.351Z,2.1717
2024-03-24T06:25:50.139Z,2.1835
2024-03-24T06:26:55.003Z,2.1991
2024-03-24T06:27:59.926Z,2.2176
2024-03-24T06:29:04.745Z,2.2431
2024-03-24T06:30:09.565Z,2.2736
2024-03-24T06:31:14.463Z,2.3118
2024-03-24T06:32:19.267Z,2.3574
2024-03-24T06:33:24.144Z,2.4099
2024-03-24T06:34:29.083Z,2.4682
2024-03-24T06:35:33.835Z,2.5277
2024-03-24T06:36:38.695Z,2.5968
2024-03-24T06:37:43.476Z,2.6669
2024-03-24T06:38:48.285Z,2.7328
2024-03-24T06:39:53.248Z,2.7850
2024-03-24T06:40:58.034Z,2.8268
2024-03-24T06:42:02.835Z,2.8656
2024-03-24T06:43:07.664Z,2.9048
2024-03-24T06:44:12.454Z,2.9487
2024-03-24T06:45:17.407Z,2.9946
2024-03-24T06:46:22.370Z,3.0484
2024-03-24T06:47:27.293Z,3.1124
2024-03-24T06:48:32.091Z,3.1853
2024-03-24T06:49:36.921Z,3.2579
2024-03-24T06:50:41.828Z,3.3207
2024-03-24T06:51:46.660Z,3.3770
2024-03-24T06:52:51.480Z,3.4331
2024-03-24T06:53:56.375Z,3.4777
2024-03-24T06:55:01.182Z,3.5035
2024-03-24T06:56:06.038Z,3.5200
2024-03-24T06:57:10.998Z,3.5308
2024-03-24T06:58:15.821Z,3.5413
2024-03-24T06:59:20.594Z,3.5630
2024-03-24T07:00:25.403Z,3.5939
2024-03-24T07:01:30.199Z,3.6315
2024-03-24T07:02:35.168Z,3.6767
2024-03-24T07:03:40.130Z,3.7286
2024-03-24T07:04:45.092Z,3.7811
2024-03-24T07:05:50.061Z,3.8292
2024-03-24T07:06:55.009Z,3.8776
2024-03-24T07:07:59.969Z,3.9295
2024-03-24T07:09:04.934Z,3.9779
2024-03-24T07:10:09.867Z,4.0222
2024-03-24T07:11:14.641Z,4.0633
2024-03-24T07:12:19.492Z,4.1021
2024-03-24T07:13:24.498Z,4.1289
2024-03-24T07:14:29.215Z,4.1489
2024-03-24T07:15:34.055Z,4.1728
2024-03-24T07:16:38.961Z,4.2002
2024-03-24T07:17:43.736Z,4.2114
2024-03-24T07:18:48.610Z,4.2120
2024-03-24T07:19:53.546Z,4.2305
2024-03-24T07:20:58.306Z,4.2629
2024-03-24T07:22:03.136Z,4.3235
2024-03-24T07:23:08.086Z,4.4187
2024-03-24T07:24:12.862Z,4.5349
2024-03-24T07:25:17.657Z,4.6664
2024-03-24T07:26:24.921Z,4.8011
2024-03-24T07:27:30.230Z,4.9352
2024-03-24T07:28:34.976Z,5.0575
2024-03-24T07:29:39.840Z,5.1450
2024-03-24T07:30:44.789Z,5.2084
2024-03-24T07:31:49.726Z,5.2546
2024-03-24T07:32:54.517Z,5.2817
2024-03-24T07:33:59.337Z,5.2957
2024-03-24T07:35:04.289Z,5.3001
2024-03-24T07:36:09.233Z,5.2922
2024-03-24T07:37:14.023Z,5.2715
2024-03-24T07:38:18.844Z,5.2415
2024-03-24T07:39:23.822Z,5.2027
2024-03-24T07:40:28.767Z,5.1657
2024-03-24T07:41:33.748Z,5.1444
2024-03-24T07:42:39.784Z,5.1355
2024-03-24T07:43:45.546Z,5.1422
2024-03-24T07:44:50.351Z,5.1877
2024-03-24T07:45:55.158Z,5.2629
2024-03-24T07:46:59.922Z,5.3374
2024-03-24T07:48:04.764Z,5.3969
2024-03-24T07:49:09.714Z,5.4587
2024-03-24T07:50:14.481Z,5.5336
2024-03-24T07:51:19.342Z,5.6179
2024-03-24T07:52:24.279Z,5.7084
2024-03-24T07:53:29.027Z,5.7972
2024-03-24T07:54:33.910Z,5.8848
2024-03-24T07:55:38.824Z,5.9788
2024-03-24T07:56:43.589Z,6.0635
2024-03-24T07:57:48.442Z,6.1364
2024-03-24T07:58:53.382Z,6.2042
2024-03-24T07:59:58.266Z,6.2654
2024-03-24T08:01:03.063Z,6.3275
2024-03-24T08:02:07.942Z,6.3918
2024-03-24T08:03:12.843Z,6.4396
2024-03-24T08:04:17.696Z,6.4657
2024-03-24T08:05:22.516Z,6.4803
2024-03-24T08:06:27.412Z,6.4956
2024-03-24T08:07:32.260Z,6.5125
2024-03-24T08:08:37.055Z,6.5297
2024-03-24T08:09:41.846Z,6.5596
2024-03-24T08:10:46.695Z,6.6029
2024-03-24T08:11:51.622Z,6.6532
2024-03-24T08:12:56.405Z,6.7179
2024-03-24T08:14:01.230Z,6.8032
2024-03-24T08:15:06.190Z,6.9058
2024-03-24T08:16:10.956Z,7.0004
2024-03-24T08:17:15.773Z,7.0714
2024-03-24T08:18:20.758Z,7.1016
2024-03-24T08:19:25.565Z,7.0927
2024-03-24T08:20:30.437Z,7.0609
2024-03-24T08:21:35.328Z,7.0319
2024-03-24T08:22:40.120Z,7.0214
2024-03-24T08:23:44.935Z,7.0172
2024-03-24T08:24:49.885Z,7.0000
2024-03-24T08:25:54.712Z,6.9784
2024-03-24T08:26:59.470Z,6.9634
2024-03-24T08:28:04.429Z,6.9586
2024-03-24T08:29:09.206Z,6.9660
2024-03-24T08:30:14.036Z,6.9956
2024-03-24T08:31:18.991Z,7.0220
2024-03-24T08:32:23.957Z,7.0335
2024-03-24T08:33:28.738Z,7.0335
2024-03-24T08:34:33.557Z,7.0287
2024-03-24T08:35:38.480Z,7.0252
2024-03-24T08:36:43.273Z,7.0265
2024-03-24T08:37:48.114Z,7.0453
2024-03-24T08:38:53.058Z,7.0637
2024-03-24T08:39:57.821Z,7.0596
2024-03-24T08:41:02.695Z,7.0411
2024-03-24T08:42:07.582Z,7.0236
2024-03-24T08:43:12.368Z,7.0239
2024-03-24T08:44:17.138Z,7.0443
2024-03-24T08:45:21.954Z,7.0634
2024-03-24T08:46:26.881Z,7.0685
2024-03-24T08:47:31.691Z,7.0631
2024-03-24T08:48:42.043Z,7.0857
2024-03-24T08:49:47.174Z,7.1831
2024-03-24T08:50:52.201Z,7.3503
2024-03-24T08:51:57.067Z,7.5500
2024-03-24T08:53:01.953Z,7.7169
2024-03-24T08:54:06.755Z,7.8223
2024-03-24T08:55:11.673Z,7.8694
2024-03-24T08:56:16.516Z,7.8822
2024-03-24T08:57:21.334Z,7.8634
2024-03-24T08:58:26.180Z,7.8092
2024-03-24T08:59:30.969Z,7.7338
2024-03-24T09:00:35.747Z,7.6586
2024-03-24T09:01:41.345Z,7.6048
2024-03-24T09:02:46.265Z,7.5653
2024-03-24T09:03:51.049Z,7.5229
2024-03-24T09:04:55.945Z,7.4713
2024-03-24T09:06:00.846Z,7.4255
2024-03-24T09:07:05.656Z,7.3841
2024-03-24T09:08:10.410Z,7.4026
2024-03-24T09:09:15.250Z,7.5350
2024-03-24T09:10:20.021Z,7.6678
2024-03-24T09:11:24.805Z,7.7389
2024-03-24T09:12:29.591Z,7.7978
2024-03-24T09:13:34.356Z,7.8411
2024-03-24T09:14:39.309Z,7.8869
2024-03-24T09:15:44.247Z,7.9258
2024-03-24T09:16:49.030Z,7.9385
2024-03-24T09:17:53.865Z,7.9127
2024-03-24T09:18:58.800Z,7.8666
2024-03-24T09:20:03.580Z,7.8293
2024-03-24T09:21:08.695Z,7.8239
2024-03-24T09:22:13.503Z,7.8420
2024-03-24T09:23:18.264Z,7.8631
2024-03-24T09:24:23.074Z,7.8965
2024-03-24T09:25:27.939Z,7.9643
2024-03-24T09:26:32.733Z,8.0885
2024-03-24T09:27:37.531Z,8.2704
2024-03-24T09:28:42.519Z,8.5102
2024-03-24T09:29:47.511Z,8.8031
2024-03-24T09:30:52.437Z,9.1216
2024-03-24T09:31:57.391Z,9.4401
2024-03-24T09:33:02.196Z,9.7560
2024-03-24T09:34:06.973Z,10.0585
2024-03-24T09:35:13.553Z,10.3496
2024-03-24T09:36:18.712Z,10.6579
2024-03-24T09:37:23.535Z,10.9372
2024-03-24T09:38:30.853Z,11.0983
2024-03-24T09:39:37.534Z,11.1158
2024-03-24T09:40:42.334Z,11.0827
2024-03-24T09:41:47.143Z,11.0576
2024-03-24T09:42:52.113Z,10.9996
2024-03-24T09:43:56.883Z,10.9143
2024-03-24T09:45:01.662Z,10.8592
2024-03-24T09:46:06.452Z,10.8894
2024-03-24T09:47:11.314Z,10.9579
2024-03-24T09:48:16.284Z,10.9846
2024-03-24T09:49:21.227Z,10.9560
2024-03-24T09:50:26.000Z,10.8974
2024-03-24T09:51:30.832Z,10.8690
2024-03-24T09:52:35.762Z,10.9483
2024-03-24T09:53:40.560Z,11.1391
2024-03-24T09:54:45.411Z,11.3881
2024-03-24T09:55:50.318Z,11.6448
2024-03-24T09:56:55.108Z,11.9391
2024-03-24T09:58:07.017Z,12.2432
2024-03-24T09:59:10.727Z,12.4620
2024-03-24T10:00:15.546Z,12.5958
2024-03-24T10:01:20.347Z,12.6856
2024-03-24T10:02:25.232Z,12.8639
2024-03-24T10:03:30.003Z,13.2391
2024-03-24T10:04:34.788Z,13.6703
2024-03-24T10:05:39.714Z,14.0452
2024-03-24T10:06:44.500Z,14.3047
2024-03-24T10:07:49.322Z,14.3777
2024-03-24T10:08:54.102Z,14.3038
2024-03-24T10:09:58.996Z,14.1245
2024-03-24T10:11:03.983Z,13.8745
2024-03-24T10:12:08.743Z,13.5821
2024-03-24T10:13:13.565Z,13.2738
2024-03-24T10:14:18.515Z,12.9706
2024-03-24T10:15:23.474Z,12.6776
2024-03-24T10:16:28.485Z,12.3866
2024-03-24T10:17:33.387Z,12.0888
2024-03-24T10:18:38.373Z,11.7830
2024-03-24T10:19:43.277Z,11.4827
2024-03-24T10:20:48.055Z,11.1977
2024-03-24T10:21:52.941Z,10.9257
2024-03-24T10:22:57.843Z,10.6537
2024-03-24T10:24:02.704Z,10.3674
2024-03-24T10:25:07.491Z,10.0639
2024-03-24T10:26:12.261Z,9.7675
2024-03-24T10:27:17.091Z,9.4933
2024-03-24T10:28:22.036Z,9.2595
2024-03-24T10:29:26.967Z,9.0859
2024-03-24T10:30:31.765Z,8.9649
2024-03-24T10:31:36.597Z,8.8764
2024-03-24T10:32:41.525Z,8.8156
2024-03-24T10:33:46.316Z,8.7939
2024-03-24T10:34:51.162Z,8.8216
2024-03-24T10:35:56.111Z,8.9748
2024-03-24T10:37:00.909Z,9.4047
2024-03-24T10:38:05.711Z,10.0353
2024-03-24T10:39:10.669Z,10.6916
2024-03-24T10:40:15.424Z,11.2617
2024-03-24T10:41:20.209Z,11.6388
2024-03-24T10:42:25.041Z,11.9840
2024-03-24T10:43:29.879Z,12.4690
2024-03-24T10:44:34.664Z,13.0159
2024-03-24T10:45:39.477Z,13.5439
2024-03-24T10:46:44.431Z,13.9751
2024-03-24T10:47:49.230Z,14.2847
2024-03-24T10:48:54.046Z,14.5532
2024-03-24T10:49:58.999Z,14.7350
2024-03-24T10:51:03.794Z,14.8751
2024-03-24T10:52:08.681Z,15.1411
2024-03-24T10:53:13.446Z,15.4927
2024-03-24T10:54:18.222Z,15.8780
2024-03-24T10:55:23.154Z,16.2851
2024-03-24T10:56:28.135Z,16.7220
2024-03-24T10:57:32.917Z,17.1937
2024-03-24T10:58:37.711Z,17.6915
2024-03-24T10:59:42.675Z,18.0785
2024-03-24T11:00:47.454Z,18.2463
2024-03-24T11:01:52.290Z,18.1846
2024-03-24T11:02:57.211Z,17.9183
2024-03-24T11:04:02.014Z,17.5546
2024-03-24T11:05:06.826Z,17.1307
2024-03-24T11:06:14.769Z,16.6351
2024-03-24T11:07:20.894Z,16.0726
2024-03-24T11:08:25.810Z,15.4656
2024-03-24T11:09:30.607Z,14.8497
2024-03-24T11:10:35.461Z,14.2385
2024-03-24T11:11:40.365Z,13.6305
2024-03-24T11:12:45.140Z,13.0260
2024-03-24T11:13:50.016Z,12.4085
2024-03-24T11:14:54.943Z,11.7528
2024-03-24T11:15:59.705Z,11.0789
2024-03-24T11:17:04.596Z,10.4850
2024-03-24T11:18:09.499Z,10.0509
2024-03-24T11:19:14.282Z,9.8060
2024-03-24T11:20:19.134Z,9.7098
2024-03-24T11:21:24.086Z,9.7197
2024-03-24T11:22:28.869Z,9.8114
2024-03-24T11:23:33.707Z,9.9553
2024-03-24T11:24:38.610Z,10.1219
2024-03-24T11:25:43.452Z,10.2923
2024-03-24T11:26:48.279Z,10.4709
2024-03-24T11:27:53.242Z,10.6735
2024-03-24T11:28:58.184Z,10.8971
2024-03-24T11:30:03.179Z,11.1305
2024-03-24T11:31:08.117Z,11.4381
2024-03-24T11:32:13.131Z,11.8850
2024-03-24T11:33:18.013Z,12.4092
2024-03-24T11:34:22.956Z,12.8929
2024-03-24T11:35:27.743Z,13.2560
2024-03-24T11:36:32.650Z,13.4550
2024-03-24T11:37:37.616Z,13.5283
2024-03-24T11:38:42.403Z,13.5684
2024-03-24T11:39:47.191Z,13.7226
2024-03-24T11:40:53.486Z,14.0487
2024-03-24T11:41:58.415Z,14.4337
2024-03-24T11:43:03.378Z,14.8417
2024-03-24T11:44:08.295Z,15.2834
2024-03-24T11:45:13.278Z,15.7379
2024-03-24T11:46:18.055Z,16.1685
2024-03-24T11:47:22.898Z,16.5456
2024-03-24T11:48:27.807Z,16.8746
2024-03-24T11:49:32.595Z,17.1740
2024-03-24T11:50:37.445Z,17.4316
2024-03-24T11:51:42.384Z,17.6361
2024-03-24T11:52:49.362Z,17.7810
2024-03-24T11:53:55.817Z,17.8399
2024-03-24T11:55:00.642Z,17.8606
2024-03-24T11:56:05.441Z,17.8454
2024-03-24T11:57:10.400Z,17.8317
2024-03-24T11:58:15.225Z,17.9243
2024-03-24T11:59:19.998Z,18.0721
2024-03-24T12:00:24.962Z,18.2062
2024-03-24T12:01:29.927Z,18.3333
2024-03-24T12:02:34.876Z,18.4454
2024-03-24T12:03:39.849Z,18.5419
2024-03-24T12:04:44.742Z,18.5531
2024-03-24T12:05:49.552Z,18.4062
2024-03-24T12:06:54.418Z,18.1661
2024-03-24T12:07:59.325Z,17.8864
2024-03-24T12:09:04.133Z,17.5858
2024-03-24T12:10:08.951Z,17.2893
2024-03-24T12:11:13.842Z,17.0068
2024-03-24T12:12:18.657Z,16.7415
2024-03-24T12:13:23.519Z,16.5421
2024-03-24T12:14:28.403Z,16.4908
2024-03-24T12:15:33.221Z,16.5192
2024-03-24T12:16:38.080Z,16.4886
2024-03-24T12:17:42.994Z,16.3809
2024-03-24T12:18:47.790Z,16.2179
2024-03-24T12:19:52.541Z,16.0274
2024-03-24T12:20:57.339Z,15.8714
2024-03-24T12:22:02.237Z,15.8758
2024-03-24T12:23:07.199Z,16.1035
2024-03-24T12:24:12.097Z,16.4163
2024-03-24T12:25:16.914Z,16.6548
2024-03-24T12:26:21.742Z,16.7332
2024-03-24T12:27:26.663Z,16.6179
2024-03-24T12:28:31.608Z,16.4701
2024-03-24T12:29:36.405Z,16.4685
2024-03-24T12:30:41.216Z,16.5975
2024-03-24T12:31:46.043Z,16.7803
2024-03-24T12:32:50.881Z,16.9638
2024-03-24T12:33:55.780Z,17.0450
2024-03-24T12:35:00.575Z,17.0023
2024-03-24T12:36:05.430Z,16.8434
2024-03-24T12:37:10.365Z,16.5876
2024-03-24T12:38:15.183Z,16.2555
2024-03-24T12:39:20.005Z,15.8682
2024-03-24T12:40:24.957Z,15.4475
2024-03-24T12:41:29.923Z,15.0086
2024-03-24T12:42:34.865Z,14.5844
2024-03-24T12:43:39.841Z,14.1856
2024-03-24T12:44:44.791Z,13.8697
2024-03-24T12:45:49.767Z,13.6885
2024-03-24T12:46:54.710Z,13.7041
2024-03-24T12:47:59.506Z,13.9713
2024-03-24T12:49:04.325Z,14.3592
2024-03-24T12:50:17.641Z,14.7729
2024-03-24T12:51:19.960Z,15.1748
2024-03-24T12:52:24.776Z,15.5522
2024-03-24T12:53:29.596Z,15.8803
2024-03-24T12:54:34.491Z,16.1701
2024-03-24T12:55:39.308Z,16.4456
2024-03-24T12:56:44.139Z,16.7169
2024-03-24T12:57:49.092Z,16.9829
2024-03-24T12:58:56.242Z,17.2275
2024-03-24T13:00:02.874Z,17.4472
2024-03-24T13:01:07.640Z,17.6517
2024-03-24T13:02:12.487Z,17.8377
2024-03-24T13:03:17.339Z,18.0037
2024-03-24T13:04:22.123Z,18.1447
2024-03-24T13:05:27.026Z,18.2651
2024-03-24T13:06:31.982Z,18.3865
2024-03-24T13:07:36.764Z,18.4202
2024-03-24T13:08:41.602Z,18.2795
2024-03-24T13:09:46.400Z,18.0097
2024-03-24T13:10:51.271Z,17.6266
2024-03-24T13:11:58.102Z,17.1565
2024-03-24T13:13:04.635Z,16.6166
2024-03-24T13:14:09.612Z,16.0351
2024-03-24T13:15:14.555Z,15.4564
2024-03-24T13:16:19.432Z,14.8952
2024-03-24T13:17:24.289Z,14.3640
2024-03-24T13:18:29.104Z,13.8799
2024-03-24T13:19:34.040Z,13.4477
2024-03-24T13:20:38.814Z,13.0971
2024-03-24T13:21:43.714Z,12.8595
2024-03-24T13:22:48.552Z,12.7592
2024-03-24T13:23:53.391Z,12.8178